Time;durP1;ratioP1;P1;durP2;ratioP2;P2;SDS_P1;SDS_P2;PMS_P1;PMS_P2;Temp;Humidity;BMP_temperature;BMP_pressure;BME280_temperature;BME280_humidity;BME280_pressure;Samples;Min_cycle;Max_cycle;Signal;HPM_P1;HPM_P2
2022/03/10 00:00:44;;;;;;;20.58;15.23;;;;;;;0.20;62.84;101975.06;5050398;28;20110;-21
2022/03/10 00:03:10;;;;;;;25.85;16.38;;;;;;;0.17;62.64;101973.16;5049137;28;20025;-19
2022/03/10 00:05:35;;;;;;;21.38;15.20;;;;;;;0.14;62.82;101977.28;5048279;28;20481;-20
2022/03/10 00:08:01;;;;;;;23.92;16.58;;;;;;;0.10;62.91;101982.31;5048179;28;20112;-23
2022/03/10 00:10:26;;;;;;;23.65;16.35;;;;;;;0.06;62.80;101977.75;5048686;28;20036;-19
2022/03/10 00:12:53;;;;;;;22.63;15.95;;;;;;;0.03;62.45;101984.50;5034060;28;20025;-19
2022/03/10 00:15:20;;;;;;;22.10;15.75;;;;;;;-0.01;62.87;101988.59;5047940;28;20522;-21
2022/03/10 00:17:46;;;;;;;20.40;14.85;;;;;;;-0.04;62.94;101996.22;5031137;28;20025;-21
2022/03/10 00:20:12;;;;;;;21.58;15.13;;;;;;;-0.08;63.05;101997.75;5049512;28;20493;-20
2022/03/10 00:22:53;;;;;;;21.30;15.55;;;;;;;-0.10;63.24;102008.84;5048171;28;20025;-21
2022/03/10 00:25:19;;;;;;;18.95;14.48;;;;;;;-0.14;62.93;102007.78;5033755;28;20025;-23
2022/03/10 00:27:45;;;;;;;21.02;13.60;;;;;;;-0.16;62.99;102024.97;5048226;28;20178;-20
2022/03/10 00:30:11;;;;;;;20.30;13.63;;;;;;;-0.21;63.39;102027.28;5049508;28;20028;-19
2022/03/10 00:32:47;;;;;;;21.48;15.43;;;;;;;-0.24;62.81;102024.50;5047988;28;20382;-21
2022/03/10 00:35:25;;;;;;;18.88;13.68;;;;;;;-0.25;63.14;102025.31;5047878;28;20020;-22
2022/03/10 00:37:52;;;;;;;22.27;15.30;;;;;;;-0.32;62.68;102033.56;5048850;28;20487;-20
2022/03/10 00:40:19;;;;;;;20.73;14.82;;;;;;;-0.34;63.13;102030.00;5030201;28;20033;-21
2022/03/10 00:42:44;;;;;;;23.23;15.70;;;;;;;-0.37;63.11;102035.00;5030563;28;20399;-20
2022/03/10 00:45:11;;;;;;;26.52;16.45;;;;;;;-0.40;63.39;102034.00;5030493;28;20460;-21
2022/03/10 00:47:36;;;;;;;23.83;16.70;;;;;;;-0.43;63.54;102036.41;5047017;28;20079;-23
2022/03/10 00:50:03;;;;;;;22.23;15.55;;;;;;;-0.46;63.23;102041.44;5048030;28;20499;-20
2022/03/10 00:52:29;;;;;;;18.65;14.40;;;;;;;-0.50;62.93;102044.63;5030224;28;20025;-21
2022/03/10 00:54:54;;;;;;;18.20;14.27;;;;;;;-0.52;63.43;102047.16;5048751;28;20392;-23
2022/03/10 00:57:20;;;;;;;21.20;15.85;;;;;;;-0.54;63.19;102048.75;5032887;28;20063;-19
2022/03/10 00:59:45;;;;;;;24.10;15.80;;;;;;;-0.58;63.44;102045.88;5048933;28;20445;-25
2022/03/10 01:02:10;;;;;;;21.20;15.35;;;;;;;-0.61;63.34;102043.09;5047578;28;20103;-23
2022/03/10 01:04:36;;;;;;;20.70;15.40;;;;;;;-0.63;63.32;102045.63;5048295;28;20033;-20
2022/03/10 01:07:01;;;;;;;24.38;16.08;;;;;;;-0.65;63.47;102039.44;5048253;28;20056;-20
2022/03/10 01:09:26;;;;;;;19.73;15.55;;;;;;;-0.67;63.11;102041.94;5047781;28;20532;-20
2022/03/10 01:11:52;;;;;;;23.73;15.85;;;;;;;-0.70;62.92;102040.88;5048233;28;20506;-20
2022/03/10 01:14:17;;;;;;;23.20;16.50;;;;;;;-0.73;63.37;102043.28;5028471;28;20532;-21
2022/03/10 01:16:43;;;;;;;23.25;15.10;;;;;;;-0.76;63.11;102043.09;5047806;28;20025;-21
2022/03/10 01:19:08;;;;;;;24.77;15.95;;;;;;;-0.78;63.09;102053.38;5048652;28;20108;-20
2022/03/10 01:21:34;;;;;;;22.60;16.02;;;;;;;-0.82;63.53;102048.81;5048613;28;21685;-21
2022/03/10 01:24:00;;;;;;;22.55;15.77;;;;;;;-0.84;63.30;102043.53;5048612;28;20030;-22
2022/03/10 01:26:26;;;;;;;23.05;15.48;;;;;;;-0.87;63.43;102047.66;5046047;28;20032;-21
2022/03/10 01:28:51;;;;;;;22.10;16.05;;;;;;;-0.90;63.26;102048.38;5048189;28;20082;-24
2022/03/10 01:31:16;;;;;;;21.77;15.82;;;;;;;-0.91;63.32;102051.75;5045743;28;20025;-20
2022/03/10 01:33:42;;;;;;;21.05;15.23;;;;;;;-0.94;63.30;102047.28;5048236;28;20025;-21
2022/03/10 01:36:08;;;;;;;19.70;15.50;;;;;;;-0.97;63.11;102046.22;5047816;28;20059;-23
2022/03/10 01:38:39;;;;;;;22.27;15.57;;;;;;;-0.99;63.45;102047.78;5029691;28;20638;-20
2022/03/10 01:41:04;;;;;;;20.35;16.27;;;;;;;-1.02;63.50;102047.59;5028626;28;20045;-21
2022/03/10 01:43:30;;;;;;;21.35;15.98;;;;;;;-1.07;63.65;102049.94;5046045;28;20086;-19
2022/03/10 01:45:55;;;;;;;22.95;16.17;;;;;;;-1.06;63.01;102046.53;5046285;28;20098;-20
2022/03/10 01:48:20;;;;;;;20.48;15.55;;;;;;;-1.10;63.70;102044.56;5047729;28;20435;-23
2022/03/10 01:50:46;;;;;;;23.17;16.63;;;;;;;-1.13;63.27;102039.19;5030520;28;20036;-20
2022/03/10 01:53:11;;;;;;;23.80;17.10;;;;;;;-1.17;63.29;102051.94;5046644;28;20025;-19
2022/03/10 01:55:37;;;;;;;22.83;15.38;;;;;;;-1.20;63.70;102054.34;5028970;28;20059;-23
2022/03/10 01:58:02;;;;;;;20.98;16.15;;;;;;;-1.21;63.94;102062.91;5032506;28;20025;-20
2022/03/10 02:00:28;;;;;;;25.40;16.27;;;;;;;-1.23;63.40;102059.31;5034912;28;20059;-19
2022/03/10 02:02:53;;;;;;;27.10;16.50;;;;;;;-1.27;63.49;102062.53;5033512;28;20043;-20
2022/03/10 02:05:18;;;;;;;24.13;17.17;;;;;;;-1.29;63.71;102059.84;5051150;28;20031;-20
2022/03/10 02:10:28;;;;;;;22.80;16.63;;;;;;;-1.33;63.27;102057.00;5049551;28;20044;-20
2022/03/10 02:12:55;;;;;;;23.58;16.27;;;;;;;-1.36;63.15;102065.47;5051749;28;20033;-20
2022/03/10 02:18:10;;;;;;;25.08;16.55;;;;;;;-1.40;63.79;102070.34;5050736;28;20036;-21
2022/03/10 02:20:36;;;;;;;21.55;15.75;;;;;;;-1.44;63.59;102067.56;5050100;28;20180;-21
2022/03/10 02:23:03;;;;;;;25.73;16.75;;;;;;;-1.48;63.53;102063.00;5051430;28;20033;-22
2022/03/10 02:25:28;;;;;;;24.98;16.58;;;;;;;-1.49;63.52;102068.97;5051248;28;20509;-19
2022/03/10 02:27:55;;;;;;;23.92;16.75;;;;;;;-1.52;63.40;102071.38;5050865;28;20033;-21
2022/03/10 02:30:22;;;;;;;20.35;15.25;;;;;;;-1.55;63.81;102068.56;5048171;28;20024;-19
2022/03/10 02:32:48;;;;;;;24.45;16.40;;;;;;;-1.57;63.71;102071.06;5049661;28;20557;-22
2022/03/10 02:35:14;;;;;;;20.77;15.48;;;;;;;-1.58;63.73;102065.78;5051276;28;20025;-20
2022/03/10 02:37:40;;;;;;;24.65;16.73;;;;;;;-1.61;63.83;102079.44;5051328;28;20033;-20
2022/03/10 02:40:06;;;;;;;26.48;16.38;;;;;;;-1.64;63.76;102074.06;5050874;28;20540;-19
2022/03/10 02:42:31;;;;;;;22.42;15.73;;;;;;;-1.65;63.65;102076.53;5050581;28;20055;-20
2022/03/10 02:44:57;;;;;;;20.85;15.02;;;;;;;-1.69;64.00;102072.88;5051212;28;20021;-21
2022/03/10 02:47:22;;;;;;;21.73;15.63;;;;;;;-1.70;63.59;102071.97;5050331;28;20061;-20
2022/03/10 02:49:48;;;;;;;21.40;15.57;;;;;;;-1.73;64.01;102071.78;5050931;28;20275;-21
2022/03/10 02:52:13;;;;;;;20.40;14.80;;;;;;;-1.77;63.85;102072.38;5049239;28;20033;-22
2022/03/10 02:54:39;;;;;;;22.17;17.42;;;;;;;-1.78;64.01;102073.19;5049943;28;20024;-22
2022/03/10 02:57:04;;;;;;;23.77;15.93;;;;;;;-1.81;63.75;102067.81;5049068;28;20021;-19
2022/03/10 02:59:30;;;;;;;24.02;16.02;;;;;;;-1.81;63.93;102080.75;5051305;28;20032;-19
2022/03/10 03:01:56;;;;;;;26.75;16.63;;;;;;;-1.84;63.55;102075.38;5049158;28;20128;-21
2022/03/10 03:04:22;;;;;;;20.60;15.88;;;;;;;-1.87;63.77;102070.03;5031767;28;20021;-25
2022/03/10 03:06:47;;;;;;;22.50;15.40;;;;;;;-1.88;63.57;102070.78;5051132;28;20052;-23
2022/03/10 03:09:12;;;;;;;23.50;15.52;;;;;;;-1.90;63.43;102075.00;5049694;28;20390;-19
2022/03/10 03:11:38;;;;;;;18.75;14.55;;;;;;;-1.95;63.65;102074.69;5049321;28;20150;-20
2022/03/10 03:14:04;;;;;;;25.23;15.73;;;;;;;-1.95;63.71;102078.16;5049334;28;20029;-22
2022/03/10 03:16:30;;;;;;;22.35;15.45;;;;;;;-1.97;63.82;102077.16;5031678;28;20021;-22
2022/03/10 03:18:56;;;;;;;21.10;15.20;;;;;;;-2.00;63.99;102071.78;5015282;28;20083;-22
2022/03/10 03:21:21;;;;;;;24.33;16.58;;;;;;;-2.02;63.61;102078.56;5048965;28;20501;-24
2022/03/10 03:23:47;;;;;;;22.00;16.38;;;;;;;-2.04;63.87;102072.38;5031551;28;20037;-20
2022/03/10 03:26:13;;;;;;;23.17;16.48;;;;;;;-2.06;63.95;102074.00;5031845;28;20034;-20
2022/03/10 03:28:38;;;;;;;23.95;15.52;;;;;;;-2.09;63.51;102066.94;5047434;28;20051;-20
2022/03/10 03:31:04;;;;;;;22.75;15.85;;;;;;;-2.10;63.37;102080.63;5048458;28;20024;-22
2022/03/10 03:33:30;;;;;;;22.73;15.68;;;;;;;-2.11;64.12;102085.69;5048363;28;20025;-20
2022/03/10 03:35:57;;;;;;;22.55;15.98;;;;;;;-2.14;63.60;102083.81;5045960;28;21276;-22
2022/03/10 03:38:22;;;;;;;25.05;15.88;;;;;;;-2.15;63.91;102083.72;5048507;28;20025;-21
2022/03/10 03:40:48;;;;;;;21.35;14.82;;;;;;;-2.17;63.56;102087.91;5049077;28;20036;-24
2022/03/10 03:43:13;;;;;;;23.58;16.65;;;;;;;-2.20;63.95;102080.84;5048851;28;20029;-22
2022/03/10 03:45:39;;;;;;;23.13;15.35;;;;;;;-2.22;63.76;102088.50;5011202;28;20996;-21
2022/03/10 03:48:04;;;;;;;21.88;15.57;;;;;;;-2.23;63.84;102088.41;5048688;28;20029;-21
2022/03/10 03:50:30;;;;;;;24.65;15.73;;;;;;;-2.26;63.77;102083.91;5047656;28;20474;-22
2022/03/10 03:52:55;;;;;;;23.67;15.88;;;;;;;-2.28;64.31;102090.66;5030996;28;20038;-21
2022/03/10 03:55:20;;;;;;;21.52;16.05;;;;;;;-2.30;63.76;102088.78;5048461;28;20104;-22
2022/03/10 03:57:46;;;;;;;21.75;15.13;;;;;;;-2.33;63.71;102084.31;5043663;28;20029;-24
2022/03/10 04:00:12;;;;;;;22.50;15.15;;;;;;;-2.34;64.07;102087.66;5048333;28;20524;-21
2022/03/10 04:02:37;;;;;;;20.25;14.95;;;;;;;-2.35;64.09;102088.47;5047497;28;20074;-21
2022/03/10 04:05:08;;;;;;;22.38;15.55;;;;;;;-2.36;64.11;102097.03;5049251;28;20032;-20
2022/03/10 04:07:34;;;;;;;;;;;;;;;-2.38;63.61;102093.41;5050143;28;20025;-20
2022/03/10 04:10:00;;;;;;;19.20;14.50;;;;;;;-2.41;64.11;102096.69;5049261;28;19970;-22
2022/03/10 04:12:25;;;;;;;21.80;14.82;;;;;;;-2.41;63.86;102108.75;5013032;28;20039;-22
2022/03/10 04:14:51;;;;;;;24.10;16.20;;;;;;;-2.45;63.94;102111.13;5049277;28;20029;-20
2022/03/10 04:17:16;;;;;;;22.48;15.27;;;;;;;-2.47;64.20;102104.94;5048480;28;20028;-19
2022/03/10 04:19:42;;;;;;;25.67;17.10;;;;;;;-2.48;63.94;102113.50;5048027;28;20017;-21
2022/03/10 04:22:07;;;;;;;20.90;14.57;;;;;;;-2.48;63.56;102113.50;5047934;28;20111;-19
2022/03/10 04:24:32;;;;;;;22.10;15.73;;;;;;;-2.53;63.93;102112.28;5030127;28;20494;-22
2022/03/10 04:26:58;;;;;;;23.38;16.05;;;;;;;-2.53;63.89;102108.81;5046613;28;20152;-21
2022/03/10 04:29:23;;;;;;;20.50;15.60;;;;;;;-2.56;63.73;102109.50;5046889;28;20108;-19
2022/03/10 04:31:49;;;;;;;24.80;15.25;;;;;;;-2.58;64.16;102105.91;5047921;28;20119;-21
2022/03/10 04:34:14;;;;;;;21.92;15.50;;;;;;;-2.60;63.85;102102.34;5045466;28;20413;-20
2022/03/10 04:36:39;;;;;;;23.27;16.70;;;;;;;-2.61;63.90;102105.69;5042897;28;20040;-21
2022/03/10 04:39:05;;;;;;;20.95;15.07;;;;;;;-2.64;63.94;102093.47;5045361;28;21225;-25
2022/03/10 04:41:37;;;;;;;23.98;14.60;;;;;;;-2.66;64.21;102094.16;5082982;27;20397;-22
2022/03/10 04:44:03;;;;;;;19.77;14.30;;;;;;;-2.66;64.09;102101.91;5080531;28;20130;-21
2022/03/10 04:46:29;;;;;;;21.25;15.95;;;;;;;-2.67;63.85;102100.13;5083462;28;20497;-23
2022/03/10 04:48:54;;;;;;;24.15;16.20;;;;;;;-2.70;63.74;102095.66;5082692;28;20064;-21
2022/03/10 04:51:20;;;;;;;19.08;14.95;;;;;;;-2.72;63.83;102100.69;5081966;28;20028;-20
2022/03/10 04:53:46;;;;;;;21.90;16.92;;;;;;;-2.74;64.05;102103.94;5084754;28;20024;-22
2022/03/10 04:56:11;;;;;;;21.77;14.88;;;;;;;-2.75;64.17;102108.22;5084489;28;20024;-22
2022/03/10 04:58:37;;;;;;;20.98;15.52;;;;;;;-2.77;63.99;102111.50;5085288;28;20032;-20
2022/03/10 05:01:02;;;;;;;18.55;14.75;;;;;;;-2.80;63.86;102100.97;5083809;28;20028;-21
2022/03/10 05:03:27;;;;;;;22.95;15.00;;;;;;;-2.79;63.82;102115.66;5085225;28;20447;-22
2022/03/10 05:05:53;;;;;;;25.35;14.65;;;;;;;-2.81;63.78;102115.53;5085433;28;20058;-20
2022/03/10 05:08:18;;;;;;;23.05;16.55;;;;;;;-2.84;64.07;102107.59;5085646;28;20054;-21
2022/03/10 05:10:43;;;;;;;23.55;14.75;;;;;;;-2.85;63.76;102113.53;5084103;28;20012;-20
2022/03/10 05:13:09;;;;;;;22.50;15.10;;;;;;;-2.88;63.78;102114.25;5085463;28;20080;-20
2022/03/10 05:15:35;;;;;;;22.17;15.43;;;;;;;-2.88;64.11;102110.75;5082158;28;20481;-21
2022/03/10 05:18:02;;;;;;;22.90;15.20;;;;;;;-2.90;63.95;102112.34;5084492;28;20099;-23
2022/03/10 05:20:29;;;;;;;21.40;15.35;;;;;;;-2.92;64.15;102121.66;5080291;28;20020;-22
2022/03/10 05:22:59;;;;;;;20.88;15.27;;;;;;;-2.95;63.69;102119.75;5083296;28;20180;-20
2022/03/10 05:25:30;;;;;;;24.52;16.50;;;;;;;-2.94;64.33;102125.84;5084429;28;20088;-20
2022/03/10 05:27:56;;;;;;;21.80;15.27;;;;;;;-2.98;63.71;102124.72;5083886;28;20032;-22
2022/03/10 05:30:21;;;;;;;22.60;15.50;;;;;;;-2.99;64.02;102122.91;5083616;28;20478;-22
2022/03/10 05:32:47;;;;;;;20.90;16.17;;;;;;;-3.00;63.92;102132.34;5083735;28;20027;-23
2022/03/10 05:35:16;;;;;;;23.83;15.82;;;;;;;-3.01;64.00;102140.88;5083912;28;20058;-20
2022/03/10 05:37:43;;;;;;;25.63;16.67;;;;;;;-3.03;64.26;102126.97;5082054;28;20600;-20
2022/03/10 05:40:11;;;;;;;25.00;17.30;;;;;;;-3.03;63.70;102131.25;5083865;28;20119;-22
2022/03/10 05:42:40;;;;;;;23.55;16.08;;;;;;;-3.06;63.96;102137.09;5084187;28;20393;-20
2022/03/10 05:45:06;;;;;;;26.13;15.77;;;;;;;-3.07;63.78;102130.13;5084607;28;20032;-24
2022/03/10 05:47:32;;;;;;;24.05;16.02;;;;;;;-3.10;63.99;102135.09;5083210;28;20039;-21
2022/03/10 05:49:57;;;;;;;25.02;15.85;;;;;;;-3.11;63.65;102134.19;5081805;28;20111;-22
2022/03/10 05:52:22;;;;;;;24.45;15.65;;;;;;;-3.12;63.96;102131.50;5073214;28;20475;-21
2022/03/10 05:54:48;;;;;;;24.67;16.50;;;;;;;-3.13;64.03;102129.69;5065098;28;20028;-21
2022/03/10 05:57:14;;;;;;;22.58;16.10;;;;;;;-3.13;63.98;102137.44;5068311;28;20021;-20
2022/03/10 05:59:39;;;;;;;24.33;15.77;;;;;;;-3.16;64.07;102132.97;5068989;28;20402;-22
2022/03/10 06:02:04;;;;;;;22.10;15.02;;;;;;;-3.16;64.07;102129.47;5068849;28;20024;-21
2022/03/10 06:04:30;;;;;;;27.00;17.55;;;;;;;-3.18;63.82;102131.03;5069038;28;20036;-20
2022/03/10 06:06:55;;;;;;;21.38;15.73;;;;;;;-3.18;64.22;102131.03;5070645;28;20490;-22
2022/03/10 06:09:20;;;;;;;22.08;16.00;;;;;;;-3.19;64.06;102143.06;5070747;28;20025;-22
2022/03/10 06:11:46;;;;;;;26.60;16.52;;;;;;;-3.20;64.08;102142.97;5067448;28;20032;-20
2022/03/10 06:14:11;;;;;;;21.48;15.15;;;;;;;-3.22;64.03;102150.59;5069895;28;20467;-21
2022/03/10 06:16:37;;;;;;;23.65;17.13;;;;;;;-3.24;64.24;102140.16;5069198;28;20514;-22
2022/03/10 06:19:03;;;;;;;21.58;15.98;;;;;;;-3.24;64.46;102150.47;5070417;28;20028;-22
2022/03/10 06:21:28;;;;;;;22.77;16.38;;;;;;;-3.24;64.04;102157.31;5067870;28;20024;-20
2022/03/10 06:23:54;;;;;;;26.92;16.70;;;;;;;-3.24;64.30;102163.38;5070426;28;20306;-20
2022/03/10 06:26:19;;;;;;;25.80;16.20;;;;;;;-3.24;64.22;102163.38;5066791;28;20103;-22
2022/03/10 06:28:45;;;;;;;25.27;16.15;;;;;;;-3.25;64.08;102160.69;5069970;28;20066;-23
2022/03/10 06:31:10;;;;;;;24.23;15.48;;;;;;;-3.27;64.54;102158.00;5068187;28;20016;-20
2022/03/10 06:33:36;;;;;;;20.52;15.70;;;;;;;-3.26;64.63;102159.81;5069268;28;20043;-20
2022/03/10 06:36:03;;;;;;;20.55;15.73;;;;;;;-3.26;64.39;102162.41;5068167;28;20029;-23
2022/03/10 06:38:28;;;;;;;22.63;15.68;;;;;;;-3.27;64.52;102170.91;5070927;28;20615;-21
2022/03/10 06:40:54;;;;;;;22.27;15.95;;;;;;;-3.25;64.60;102177.09;5068399;28;20032;-22
2022/03/10 06:43:19;;;;;;;20.65;15.52;;;;;;;-3.26;64.69;102175.28;5052061;28;20043;-22
2022/03/10 06:45:44;;;;;;;22.50;15.90;;;;;;;-3.25;64.60;102177.09;5069582;28;20032;-20
2022/03/10 06:48:10;;;;;;;24.10;15.23;;;;;;;-3.25;64.61;102174.50;5068728;28;20098;-21
2022/03/10 06:50:38;;;;;;;23.27;16.20;;;;;;;-3.25;64.88;102171.91;5069348;28;20108;-24
2022/03/10 06:53:04;;;;;;;20.67;15.57;;;;;;;-3.25;64.94;102164.19;5070493;28;20024;-22
2022/03/10 06:55:29;;;;;;;22.45;15.80;;;;;;;-3.21;64.35;102170.44;5063655;28;20020;-21
2022/03/10 06:57:55;;;;;;;19.73;14.88;;;;;;;-3.19;64.96;102180.88;5068942;28;20497;-21
2022/03/10 07:00:22;;;;;;;22.20;15.15;;;;;;;-3.20;64.95;102177.41;5057911;28;20078;-23
2022/03/10 07:02:48;;;;;;;24.85;16.13;;;;;;;-3.20;64.93;102179.09;5099370;27;20024;-21
2022/03/10 07:05:13;;;;;;;19.33;14.13;;;;;;;-3.18;64.98;102182.66;5068579;28;20454;-22
2022/03/10 07:07:38;;;;;;;23.13;16.17;;;;;;;-3.16;65.03;102189.75;5068884;28;20040;-22
2022/03/10 07:10:04;;;;;;;24.50;17.13;;;;;;;-3.15;65.28;102191.53;5069984;28;20030;-21
2022/03/10 07:12:36;;;;;;;20.75;15.52;;;;;;;-3.13;65.01;102186.50;5068377;28;20316;-23
2022/03/10 07:15:04;;;;;;;24.10;16.38;;;;;;;-3.11;65.21;102184.91;5067363;28;20485;-24
2022/03/10 07:17:29;;;;;;;24.60;16.10;;;;;;;-3.08;65.47;102185.13;5068448;28;20090;-21
2022/03/10 07:19:54;;;;;;;21.55;15.50;;;;;;;-3.06;64.99;102191.31;5068446;28;20433;-21
2022/03/10 07:22:20;;;;;;;20.98;15.60;;;;;;;-3.03;64.96;102193.22;5068023;28;20038;-20
2022/03/10 07:24:45;;;;;;;27.52;17.00;;;;;;;-3.01;65.32;102189.94;5067730;28;20031;-21
2022/03/10 07:27:11;;;;;;;21.45;16.00;;;;;;;-2.98;64.97;102199.59;5066308;28;20493;-21
2022/03/10 07:29:37;;;;;;;20.23;14.85;;;;;;;-2.94;65.29;102203.28;5069243;28;20025;-21
2022/03/10 07:32:02;;;;;;;25.05;16.67;;;;;;;-2.89;65.12;102200.25;5068494;28;20040;-23
2022/03/10 07:34:27;;;;;;;26.33;16.88;;;;;;;-2.84;65.39;102201.47;5066303;28;20498;-21
2022/03/10 07:36:53;;;;;;;24.85;15.95;;;;;;;-2.80;65.62;102199.97;5067422;28;20256;-20
2022/03/10 07:39:19;;;;;;;22.02;16.13;;;;;;;-2.76;65.50;102202.03;5067110;28;20482;-20
2022/03/10 07:41:44;;;;;;;22.08;15.90;;;;;;;-2.69;65.47;102210.19;5067028;28;20033;-22
2022/03/10 07:44:09;;;;;;;22.08;16.23;;;;;;;-2.63;65.86;102213.19;5067221;28;20111;-21
2022/03/10 07:46:35;;;;;;;22.33;16.33;;;;;;;-2.58;66.14;102204.97;5067398;28;20039;-20
2022/03/10 07:49:00;;;;;;;22.58;16.20;;;;;;;-2.51;66.09;102210.56;5069123;28;20028;-22
2022/03/10 07:51:25;;;;;;;19.67;15.45;;;;;;;-2.44;66.28;102212.78;5068241;28;20145;-21
2022/03/10 07:53:51;;;;;;;22.52;16.25;;;;;;;-2.37;66.29;102202.06;5067637;28;20374;-21
2022/03/10 07:56:16;;;;;;;22.80;16.00;;;;;;;-2.29;65.92;102212.94;5067971;28;20020;-21
2022/03/10 07:58:42;;;;;;;23.05;16.15;;;;;;;-2.22;66.15;102207.41;5068478;28;20458;-24
2022/03/10 08:01:07;;;;;;;39.28;16.88;;;;;;;-2.13;65.81;102208.81;5068179;28;20475;-20
2022/03/10 08:03:32;;;;;;;24.95;17.45;;;;;;;-2.07;65.70;102209.22;5068169;28;20028;-21
2022/03/10 08:05:58;;;;;;;23.10;15.40;;;;;;;-1.99;65.92;102208.06;5067334;28;20017;-20
2022/03/10 08:08:23;;;;;;;26.38;17.33;;;;;;;-1.90;66.12;102206.91;5066206;28;20196;-21
2022/03/10 08:10:48;;;;;;;28.42;18.08;;;;;;;-1.83;66.12;102216.84;5067821;28;20056;-22
2022/03/10 08:13:14;;;;;;;25.13;16.90;;;;;;;-1.72;65.33;102205.53;5068235;28;20056;-20
2022/03/10 08:15:40;;;;;;;25.55;17.73;;;;;;;-1.61;65.63;102197.56;5067867;28;20028;-21
2022/03/10 08:18:06;;;;;;;31.70;17.52;;;;;;;-1.52;65.30;102200.75;5068490;28;20021;-22
2022/03/10 08:20:31;;;;;;;30.55;16.73;;;;;;;-1.41;65.78;102209.22;5068298;28;20021;-22
2022/03/10 08:22:57;;;;;;;27.15;17.70;;;;;;;-1.33;65.11;102200.25;5067709;28;20107;-22
2022/03/10 08:25:22;;;;;;;23.27;17.20;;;;;;;-1.21;65.68;102210.50;5066928;28;20024;-21
2022/03/10 08:27:48;;;;;;;29.15;18.80;;;;;;;-1.12;65.50;102198.94;5068203;28;20032;-21
2022/03/10 08:30:14;;;;;;;24.30;17.40;;;;;;;-1.00;65.33;102202.31;5068191;28;20501;-20
2022/03/10 08:32:43;;;;;;;26.80;17.42;;;;;;;-0.89;65.30;102200.41;5067373;28;20055;-21
2022/03/10 08:35:08;;;;;;;22.40;17.05;;;;;;;-0.76;64.73;102199.47;5067652;28;20048;-21
2022/03/10 08:37:34;;;;;;;25.48;17.83;;;;;;;-0.67;64.97;102196.53;5067889;28;20056;-24
2022/03/10 08:39:59;;;;;;;23.42;16.83;;;;;;;-0.54;65.03;102200.78;5067627;28;20464;-20
2022/03/10 08:42:24;;;;;;;25.52;17.58;;;;;;;-0.45;64.66;102198.78;5066194;28;20039;-21
2022/03/10 08:44:50;;;;;;;26.67;17.67;;;;;;;-0.30;64.30;102197.91;5067873;28;20048;-20
2022/03/10 08:47:15;;;;;;;21.80;17.25;;;;;;;-0.17;64.75;102204.72;5068090;28;20074;-21
2022/03/10 08:49:40;;;;;;;25.33;17.40;;;;;;;-0.06;64.30;102195.00;5067055;28;20086;-21
2022/03/10 08:52:06;;;;;;;25.13;17.95;;;;;;;0.06;64.04;102198.28;5066212;28;20025;-21
2022/03/10 08:54:32;;;;;;;24.30;17.85;;;;;;;0.20;64.51;102200.81;5068942;28;20043;-20
2022/03/10 08:56:57;;;;;;;23.50;17.60;;;;;;;0.31;64.05;102207.53;5067548;28;20055;-22
2022/03/10 08:59:22;;;;;;;26.50;17.83;;;;;;;0.44;64.59;102200.44;5066470;28;20470;-21
2022/03/10 09:01:48;;;;;;;26.38;17.17;;;;;;;0.58;64.16;102201.22;5066895;28;20024;-21
2022/03/10 09:04:13;;;;;;;25.48;16.98;;;;;;;0.73;64.35;102209.00;5067502;28;20462;-21
2022/03/10 09:06:38;;;;;;;22.95;17.20;;;;;;;0.88;63.81;102207.25;5067201;28;20029;-22
2022/03/10 09:09:04;;;;;;;23.75;18.27;;;;;;;1.03;64.11;102198.50;5067238;28;20067;-21
2022/03/10 09:11:29;;;;;;;23.65;17.20;;;;;;;1.17;63.73;102196.69;5066346;28;20024;-21
2022/03/10 09:13:55;;;;;;;23.95;17.35;;;;;;;1.31;63.49;102197.41;5066958;28;20391;-21
2022/03/10 09:16:21;;;;;;;25.85;17.88;;;;;;;1.49;63.87;102194.00;5066112;28;20025;-21
2022/03/10 09:18:47;;;;;;;21.88;17.90;;;;;;;1.65;63.78;102199.22;5066858;28;20378;-22
2022/03/10 09:21:13;;;;;;;26.10;16.98;;;;;;;1.79;63.29;102193.81;5065658;28;20029;-21
2022/03/10 09:23:38;;;;;;;22.73;17.33;;;;;;;1.93;63.60;102197.13;5068952;28;20067;-20
2022/03/10 09:26:04;;;;;;;24.60;16.40;;;;;;;2.09;63.50;102185.78;5068045;28;20473;-23
2022/03/10 09:28:29;;;;;;;24.10;16.83;;;;;;;2.26;63.42;102185.72;5070944;28;20067;-20
2022/03/10 09:30:54;;;;;;;20.95;16.60;;;;;;;2.41;63.22;102191.69;5069672;28;20054;-22
2022/03/10 09:33:20;;;;;;;18.20;15.65;;;;;;;2.54;63.58;102181.88;5071015;28;20107;-21
2022/03/10 09:35:45;;;;;;;19.90;15.65;;;;;;;2.71;63.32;102181.78;5071041;28;20020;-21
2022/03/10 09:38:11;;;;;;;20.08;15.35;;;;;;;2.85;62.71;102196.38;5070451;28;20512;-23
2022/03/10 09:40:36;;;;;;;22.98;15.93;;;;;;;3.00;62.96;102195.31;5071402;28;20478;-22
2022/03/10 09:43:02;;;;;;;21.80;15.55;;;;;;;3.13;62.39;102197.66;5070334;28;20024;-21
2022/03/10 09:45:29;;;;;;;20.13;16.13;;;;;;;3.29;62.85;102186.22;5070968;28;20071;-21
2022/03/10 09:47:54;;;;;;;19.58;14.65;;;;;;;3.44;62.51;102183.41;5070302;28;20028;-20
2022/03/10 09:50:20;;;;;;;21.00;15.20;;;;;;;3.62;62.74;102195.50;5070589;28;20069;-21
2022/03/10 09:52:46;;;;;;;20.92;15.40;;;;;;;3.73;62.30;102185.53;5070199;28;20566;-22
2022/03/10 09:55:13;;;;;;;18.63;14.88;;;;;;;3.88;62.01;102177.47;5070346;28;20397;-22
2022/03/10 09:57:40;;;;;;;17.05;14.48;;;;;;;4.02;61.92;102175.44;5070340;28;20036;-21
2022/03/10 10:00:08;;;;;;;20.25;15.50;;;;;;;4.16;61.63;102183.84;5070376;28;20024;-20
2022/03/10 10:02:34;;;;;;;19.95;15.00;;;;;;;4.32;62.05;102172.34;5085205;28;20565;-21
2022/03/10 10:05:00;;;;;;;18.35;14.25;;;;;;;4.48;61.51;102175.56;5070247;28;20086;-22
2022/03/10 10:07:29;;;;;;;15.88;14.05;;;;;;;4.61;62.28;102177.81;5069328;28;20470;-21
2022/03/10 10:09:57;;;;;;;17.38;13.00;;;;;;;4.75;61.97;102173.16;5069778;28;20016;-20
2022/03/10 10:12:27;;;;;;;19.50;13.73;;;;;;;4.89;61.83;102170.19;5069709;28;20052;-20
2022/03/10 10:14:54;;;;;;;18.42;13.82;;;;;;;5.04;61.73;102163.78;5069330;28;20025;-23
2022/03/10 10:17:30;;;;;;;14.15;12.45;;;;;;;5.20;61.41;102168.72;5102098;28;20461;-21
2022/03/10 10:19:57;;;;;;;15.70;13.23;;;;;;;5.33;61.49;102169.22;5068749;28;20600;-20
2022/03/10 10:22:24;;;;;;;17.88;13.80;;;;;;;5.42;61.05;102169.53;5069529;28;20059;-21
2022/03/10 10:24:53;;;;;;;16.27;12.85;;;;;;;5.55;61.11;102160.41;5070226;28;20028;-21
2022/03/10 10:27:23;;;;;;;21.77;14.60;;;;;;;5.70;61.11;102154.78;5070144;28;20493;-20
2022/03/10 10:29:55;;;;;;;15.68;13.65;;;;;;;5.84;61.17;102157.03;5068585;28;20016;-21
2022/03/10 10:32:30;;;;;;;18.13;13.02;;;;;;;5.96;60.72;102164.38;5068135;28;20115;-21
2022/03/10 10:35:07;;;;;;;19.48;13.63;;;;;;;6.07;60.88;102154.34;5069571;28;20028;-21
2022/03/10 10:37:33;;;;;;;18.20;12.35;;;;;;;6.20;60.43;102153.88;5069972;28;20036;-22
2022/03/10 10:39:58;;;;;;;18.73;12.70;;;;;;;6.32;61.10;102157.75;5069459;28;20020;-21
2022/03/10 10:42:32;;;;;;;20.42;13.57;;;;;;;6.44;61.07;102152.91;5068532;28;20036;-20
2022/03/10 10:45:01;;;;;;;18.08;12.30;;;;;;;6.56;60.92;102155.03;5069128;28;20511;-21
2022/03/10 10:47:27;;;;;;;15.05;12.20;;;;;;;6.65;60.25;102150.09;5069550;28;20253;-22
2022/03/10 10:50:02;;;;;;;17.98;12.68;;;;;;;6.76;60.26;102147.78;5069995;28;20078;-24
2022/03/10 10:52:39;;;;;;;17.73;11.70;;;;;;;6.91;59.95;102144.72;5068798;28;20029;-20
2022/03/10 10:55:13;;;;;;;16.98;12.50;;;;;;;7.03;59.95;102130.19;5069714;28;20028;-20
2022/03/10 10:57:39;;;;;;;15.68;11.20;;;;;;;7.18;60.10;102138.50;5068376;28;20024;-21
2022/03/10 11:00:08;;;;;;;15.65;11.50;;;;;;;7.26;59.86;102138.72;5069342;28;20112;-21
2022/03/10 11:02:35;;;;;;;16.98;12.10;;;;;;;7.38;59.86;102132.03;5067432;28;20082;-22
2022/03/10 11:05:00;;;;;;;16.85;11.52;;;;;;;7.45;59.61;102118.25;5068386;28;20423;-20
2022/03/10 11:07:26;;;;;;;14.55;10.15;;;;;;;7.54;59.76;102126.34;5070907;28;20096;-21
2022/03/10 11:09:52;;;;;;;16.45;10.93;;;;;;;7.65;59.27;102115.25;5068680;28;20102;-19
2022/03/10 11:12:18;;;;;;;15.18;10.02;;;;;;;7.73;59.23;102113.72;5068765;28;20024;-20